createdAt,value
2023-05-15T00:00:21.320Z,28.49
2023-05-15T00:01:25.602Z,28.48
2023-05-15T00:02:27.864Z,28.48
2023-05-15T00:03:31.267Z,28.48
2023-05-15T00:04:33.655Z,28.47
2023-05-15T00:05:35.642Z,28.48
2023-05-15T00:06:38.362Z,28.45
2023-05-15T00:07:41.384Z,28.47
2023-05-15T00:08:45.001Z,28.47
2023-05-15T00:09:46.931Z,28.47
2023-05-15T00:11:00.689Z,28.46
2023-05-15T00:12:04.301Z,28.46
2023-05-15T00:13:06.198Z,28.46
2023-05-15T00:14:08.163Z,28.43
2023-05-15T00:15:10.776Z,28.44
2023-05-15T00:16:12.773Z,28.43
2023-05-15T00:17:14.954Z,28.43
2023-05-15T00:18:16.855Z,28.42
2023-05-15T00:19:19.074Z,28.42
2023-05-15T00:20:21.191Z,28.43
2023-05-15T00:21:23.089Z,28.41
2023-05-15T00:22:26.520Z,28.42
2023-05-15T00:23:28.483Z,28.40
2023-05-15T00:24:30.484Z,28.40
2023-05-15T00:25:32.670Z,28.40
2023-05-15T00:26:34.487Z,28.39
2023-05-15T00:27:36.507Z,28.39
2023-05-15T00:28:38.424Z,28.37
2023-05-15T00:29:40.247Z,28.39
2023-05-15T00:30:42.160Z,28.40
2023-05-15T00:31:44.152Z,28.36
2023-05-15T00:32:46.107Z,28.36
2023-05-15T00:33:48.091Z,28.36
2023-05-15T00:34:49.895Z,28.36
2023-05-15T00:35:51.698Z,28.35
2023-05-15T00:36:53.594Z,28.34
2023-05-15T00:37:55.570Z,28.34
2023-05-15T00:38:57.601Z,28.34
2023-05-15T00:39:59.458Z,28.32
2023-05-15T00:41:02.560Z,28.30
2023-05-15T00:42:06.659Z,28.30
2023-05-15T00:43:11.172Z,28.30
2023-05-15T00:44:16.819Z,28.30
2023-05-15T00:45:22.051Z,28.29
2023-05-15T00:46:27.296Z,28.29
2023-05-15T00:47:31.043Z,28.29
2023-05-15T00:48:34.139Z,28.27
2023-05-15T00:49:37.974Z,28.27
2023-05-15T00:50:41.631Z,28.28
2023-05-15T00:51:43.932Z,28.27
2023-05-15T00:52:46.607Z,28.26
2023-05-15T00:53:50.765Z,28.26
2023-05-15T00:54:52.684Z,28.25
2023-05-15T00:56:00.290Z,28.24
2023-05-15T00:57:05.592Z,28.24
2023-05-15T00:58:10.364Z,28.25
2023-05-15T00:59:13.792Z,28.23
2023-05-15T01:00:18.483Z,28.24
2023-05-15T01:01:20.711Z,28.22
2023-05-15T01:02:23.409Z,28.22
2023-05-15T01:03:25.990Z,28.20
2023-05-15T01:04:28.196Z,28.21
2023-05-15T01:05:30.257Z,28.21
2023-05-15T01:06:32.799Z,28.22
2023-05-15T01:07:44.627Z,28.22
2023-05-15T01:08:49.495Z,28.21
2023-05-15T01:09:54.283Z,28.24
2023-05-15T01:10:59.385Z,28.21
2023-05-15T01:12:02.453Z,28.20
2023-05-15T01:13:07.350Z,28.21
2023-05-15T01:14:09.560Z,28.20
2023-05-15T01:15:11.903Z,28.19
2023-05-15T01:16:13.935Z,28.20
2023-05-15T01:17:16.033Z,28.19
2023-05-15T01:18:18.021Z,28.18
2023-05-15T01:19:20.190Z,28.18
2023-05-15T01:20:23.577Z,28.18
2023-05-15T01:21:37.641Z,28.20
2023-05-15T01:23:16.305Z,28.19
2023-05-15T01:24:48.858Z,28.20
2023-05-15T01:26:30.217Z,28.18
2023-05-15T01:27:54.962Z,28.14
2023-05-15T01:29:05.173Z,28.13
2023-05-15T01:30:23.154Z,28.12
2023-05-15T01:31:30.657Z,28.11
2023-05-15T01:32:43.702Z,28.11
2023-05-15T01:33:54.955Z,28.10
2023-05-15T01:35:49.772Z,28.14
2023-05-15T01:36:59.481Z,28.10
2023-05-15T01:38:17.485Z,28.08
2023-05-15T01:39:24.199Z,28.06
2023-05-15T01:40:28.855Z,28.06
2023-05-15T01:41:50.657Z,28.07
2023-05-15T01:42:59.134Z,28.05
2023-05-15T01:44:31.317Z,28.08
2023-05-15T01:45:35.601Z,28.06
2023-05-15T01:46:45.255Z,28.03
2023-05-15T01:47:49.972Z,28.04
2023-05-15T01:48:54.864Z,28.05
2023-05-15T01:49:58.502Z,28.04
2023-05-15T01:51:05.098Z,28.04
2023-05-15T01:52:28.380Z,28.05
2023-05-15T01:53:34.226Z,28.03
2023-05-15T01:54:37.877Z,28.02
2023-05-15T01:55:42.115Z,28.01
2023-05-15T01:56:46.126Z,28.00
2023-05-15T01:57:51.883Z,28.00
2023-05-15T01:58:56.393Z,27.99
2023-05-15T01:59:59.863Z,27.98
2023-05-15T02:01:02.229Z,27.98
2023-05-15T02:02:07.571Z,27.98
2023-05-15T02:03:10.216Z,27.97
2023-05-15T02:04:14.348Z,27.97
2023-05-15T02:05:18.169Z,27.98
2023-05-15T02:06:21.722Z,27.97
2023-05-15T02:07:25.038Z,27.96
2023-05-15T02:08:28.888Z,27.96
2023-05-15T02:09:33.149Z,27.96
2023-05-15T02:10:36.581Z,27.95
2023-05-15T02:11:39.393Z,27.95
2023-05-15T02:12:43.558Z,27.94
2023-05-15T02:13:46.152Z,27.93
2023-05-15T02:14:50.768Z,27.96
2023-05-15T02:15:53.352Z,27.95
2023-05-15T02:16:56.012Z,27.94
2023-05-15T02:17:57.904Z,27.93
2023-05-15T02:18:59.850Z,27.93
2023-05-15T02:20:01.910Z,27.93
2023-05-15T02:21:04.068Z,27.95
2023-05-15T02:22:05.966Z,27.93
2023-05-15T02:23:08.457Z,27.91
2023-05-15T02:24:10.442Z,27.90
2023-05-15T02:25:12.407Z,27.92
2023-05-15T02:26:46.460Z,27.93
2023-05-15T02:28:02.740Z,27.91
2023-05-15T02:29:46.644Z,27.90
2023-05-15T02:31:12.996Z,27.88
2023-05-15T02:32:44.901Z,27.88
2023-05-15T02:33:59.226Z,27.85
2023-05-15T02:35:21.739Z,27.85
2023-05-15T02:36:33.824Z,27.83
2023-05-15T02:37:41.507Z,27.82
2023-05-15T02:38:53.459Z,27.82
2023-05-15T02:40:00.034Z,27.80
2023-05-15T02:41:05.876Z,27.80
2023-05-15T02:42:10.384Z,27.81
2023-05-15T02:43:15.627Z,27.79
2023-05-15T02:44:19.350Z,27.79
2023-05-15T02:45:23.346Z,27.77
2023-05-15T02:46:28.237Z,27.77
2023-05-15T02:47:31.184Z,27.77
2023-05-15T02:48:41.916Z,27.77
2023-05-15T02:49:45.378Z,27.77
2023-05-15T02:50:47.298Z,27.77
2023-05-15T02:51:49.244Z,27.77
2023-05-15T02:52:51.114Z,27.73
2023-05-15T02:53:55.026Z,27.75
2023-05-15T02:54:56.877Z,27.77
2023-05-15T02:55:58.774Z,27.76
2023-05-15T02:57:00.655Z,27.75
2023-05-15T02:58:03.870Z,27.75
2023-05-15T02:59:06.441Z,27.75
2023-05-15T03:00:11.893Z,27.75
2023-05-15T03:01:13.801Z,27.75
2023-05-15T03:02:16.130Z,27.73
2023-05-15T03:03:18.008Z,27.75
2023-05-15T03:04:20.733Z,27.76
2023-05-15T03:05:23.135Z,27.75
2023-05-15T03:06:25.267Z,27.74
2023-05-15T03:07:27.284Z,27.73
2023-05-15T03:08:29.936Z,27.76
2023-05-15T03:09:31.823Z,27.72
2023-05-15T03:10:33.788Z,27.74
2023-05-15T03:11:35.606Z,27.73
2023-05-15T03:12:39.143Z,27.72
2023-05-15T03:13:41.002Z,27.72
2023-05-15T03:14:42.940Z,27.72
2023-05-15T03:15:45.526Z,27.71
2023-05-15T03:16:47.536Z,27.71
2023-05-15T03:17:49.607Z,27.70
2023-05-15T03:18:51.475Z,27.71
2023-05-15T03:19:53.663Z,27.70
2023-05-15T03:20:55.547Z,27.69
2023-05-15T03:21:57.406Z,27.69
2023-05-15T03:22:59.429Z,27.70
2023-05-15T03:24:01.925Z,27.70
2023-05-15T03:25:04.051Z,27.70
2023-05-15T03:26:05.889Z,27.71
2023-05-15T03:27:07.759Z,27.71
2023-05-15T03:28:09.592Z,27.70
2023-05-15T03:29:11.822Z,27.69
2023-05-15T03:30:14.081Z,27.68
2023-05-15T03:31:16.048Z,27.69
2023-05-15T03:32:18.128Z,27.70
2023-05-15T03:33:20.492Z,27.68
2023-05-15T03:34:22.417Z,27.67
2023-05-15T03:35:25.109Z,27.68
2023-05-15T03:36:27.231Z,27.68
2023-05-15T03:37:29.182Z,27.68
2023-05-15T03:38:31.249Z,27.67
2023-05-15T03:39:33.131Z,27.68
2023-05-15T03:40:35.026Z,27.67
2023-05-15T03:41:36.934Z,27.68
2023-05-15T03:42:38.768Z,27.67
2023-05-15T03:43:40.915Z,27.66
2023-05-15T03:44:42.988Z,27.66
2023-05-15T03:45:45.030Z,27.67
2023-05-15T03:46:46.964Z,27.66
2023-05-15T03:47:49.287Z,27.66
2023-05-15T03:48:51.210Z,27.64
2023-05-15T03:49:53.229Z,27.67
2023-05-15T03:50:55.734Z,27.65
2023-05-15T03:51:58.070Z,27.65
2023-05-15T03:53:00.469Z,27.65
2023-05-15T03:54:05.194Z,27.63
2023-05-15T03:55:07.938Z,27.63
2023-05-15T03:56:09.905Z,27.64
2023-05-15T03:57:12.565Z,27.63
2023-05-15T03:58:14.375Z,27.60
2023-05-15T03:59:16.239Z,27.62
2023-05-15T04:00:21.932Z,27.60
2023-05-15T04:01:23.862Z,27.62
2023-05-15T04:02:25.754Z,27.61
2023-05-15T04:03:28.069Z,27.61
2023-05-15T04:04:30.522Z,27.60
2023-05-15T04:05:32.411Z,27.59
2023-05-15T04:06:34.227Z,27.60
2023-05-15T04:07:37.573Z,27.58
2023-05-15T04:08:40.420Z,27.60
2023-05-15T04:09:43.450Z,27.60
2023-05-15T04:10:45.290Z,27.59
2023-05-15T04:11:47.091Z,27.58
2023-05-15T04:12:49.261Z,27.59
2023-05-15T04:13:51.080Z,27.59
2023-05-15T04:14:52.957Z,27.59
2023-05-15T04:15:56.584Z,27.59
2023-05-15T04:16:58.373Z,27.59
2023-05-15T04:18:00.553Z,27.60
2023-05-15T04:19:02.599Z,27.61
2023-05-15T04:20:06.552Z,27.61
2023-05-15T04:21:08.700Z,27.61
2023-05-15T04:22:10.705Z,27.61
2023-05-15T04:23:12.647Z,27.63
2023-05-15T04:24:14.484Z,27.62
2023-05-15T04:25:18.251Z,27.62
2023-05-15T04:26:20.092Z,27.64
2023-05-15T04:27:22.527Z,27.63
2023-05-15T04:28:24.482Z,27.64
2023-05-15T04:29:26.402Z,27.64
2023-05-15T04:30:28.398Z,27.64
2023-05-15T04:31:31.649Z,27.66
2023-05-15T04:32:34.483Z,27.66
2023-05-15T04:33:36.872Z,27.66
2023-05-15T04:34:39.230Z,27.66
2023-05-15T04:35:41.520Z,27.67
2023-05-15T04:36:43.477Z,27.67
2023-05-15T04:37:48.030Z,27.67
2023-05-15T04:38:49.949Z,27.68
2023-05-15T04:39:51.753Z,27.68
2023-05-15T04:40:53.758Z,27.68
2023-05-15T04:41:55.890Z,27.68
2023-05-15T04:42:58.084Z,27.70
2023-05-15T04:43:59.997Z,27.69
2023-05-15T04:45:02.761Z,27.68
2023-05-15T04:46:05.158Z,27.70
2023-05-15T04:47:07.075Z,27.69
2023-05-15T04:48:09.096Z,27.68
2023-05-15T04:49:10.981Z,27.70
2023-05-15T04:50:13.089Z,27.69
2023-05-15T04:51:15.146Z,27.70
2023-05-15T04:52:18.015Z,27.69
2023-05-15T04:53:19.892Z,27.69
2023-05-15T04:54:22.269Z,27.70
2023-05-15T04:55:24.304Z,27.70
2023-05-15T04:56:26.328Z,27.68
2023-05-15T04:57:28.374Z,27.69
2023-05-15T04:58:30.488Z,27.68
2023-05-15T04:59:32.337Z,27.67
2023-05-15T05:00:34.208Z,27.68
2023-05-15T05:01:36.014Z,27.68
2023-05-15T05:02:43.226Z,27.68
2023-05-15T05:03:45.236Z,27.67
2023-05-15T05:04:47.162Z,27.68
2023-05-15T05:05:49.375Z,27.67
2023-05-15T05:06:51.277Z,27.67
2023-05-15T05:07:53.156Z,27.68
2023-05-15T05:08:54.996Z,27.67
2023-05-15T05:09:56.875Z,27.66
2023-05-15T05:10:58.850Z,27.66
2023-05-15T05:12:01.946Z,27.68
2023-05-15T05:13:04.285Z,27.67
2023-05-15T05:14:06.232Z,27.65
2023-05-15T05:15:09.385Z,27.65
2023-05-15T05:16:11.621Z,27.65
2023-05-15T05:17:14.086Z,27.66
2023-05-15T05:18:15.992Z,27.66
2023-05-15T05:19:18.114Z,27.65
2023-05-15T05:20:20.068Z,27.67
2023-05-15T05:21:22.072Z,27.66
2023-05-15T05:22:23.963Z,27.66
2023-05-15T05:23:26.023Z,27.66
2023-05-15T05:24:28.604Z,27.65
2023-05-15T05:25:30.658Z,27.66
2023-05-15T05:26:32.727Z,27.66
2023-05-15T05:27:34.712Z,27.65
2023-05-15T05:28:36.566Z,27.66
2023-05-15T05:29:39.911Z,27.66
2023-05-15T05:30:48.518Z,27.67
2023-05-15T05:31:50.544Z,27.64
2023-05-15T05:32:52.679Z,27.66
2023-05-15T05:33:55.657Z,27.66
2023-05-15T05:34:57.529Z,27.65
2023-05-15T05:35:59.437Z,27.66
2023-05-15T05:37:01.593Z,27.64
2023-05-15T05:38:03.973Z,27.65
2023-05-15T05:39:05.853Z,27.66
2023-05-15T05:40:09.187Z,27.65
2023-05-15T05:41:11.220Z,27.65
2023-05-15T05:42:13.144Z,27.66
2023-05-15T05:43:15.092Z,27.64
2023-05-15T05:44:17.147Z,27.65
2023-05-15T05:45:19.556Z,27.64
2023-05-15T05:46:21.742Z,27.64
2023-05-15T05:47:23.821Z,27.65
2023-05-15T05:48:26.794Z,27.64
2023-05-15T05:49:28.700Z,27.65
2023-05-15T05:50:30.634Z,27.65
2023-05-15T05:51:36.806Z,27.63
2023-05-15T05:52:39.006Z,27.66
2023-05-15T05:53:41.155Z,27.66
2023-05-15T05:54:45.818Z,27.66
2023-05-15T05:55:48.846Z,27.66
2023-05-15T05:56:51.004Z,27.66
2023-05-15T05:57:52.967Z,27.65
2023-05-15T05:58:56.384Z,27.67
2023-05-15T05:59:58.898Z,27.66
2023-05-15T06:01:01.127Z,27.67
2023-05-15T06:02:03.872Z,27.67
2023-05-15T06:03:05.774Z,27.67
2023-05-15T06:04:07.801Z,27.67
2023-05-15T06:05:09.843Z,27.65
2023-05-15T06:06:12.114Z,27.66
2023-05-15T06:07:14.393Z,27.67
2023-05-15T06:08:17.183Z,27.65
2023-05-15T06:09:19.070Z,27.67
2023-05-15T06:10:21.877Z,27.68
2023-05-15T06:11:25.345Z,27.68
2023-05-15T06:12:28.268Z,27.66
2023-05-15T06:13:30.083Z,27.66
2023-05-15T06:14:32.036Z,27.67
2023-05-15T06:15:33.991Z,27.67
2023-05-15T06:16:36.047Z,27.68
2023-05-15T06:17:38.910Z,27.68
2023-05-15T06:18:40.979Z,27.69
2023-05-15T06:19:42.971Z,27.70
2023-05-15T06:20:44.930Z,27.68
2023-05-15T06:21:46.746Z,27.68
2023-05-15T06:22:48.674Z,27.68
2023-05-15T06:23:50.753Z,27.71
2023-05-15T06:24:52.738Z,27.71
2023-05-15T06:25:54.664Z,27.73
2023-05-15T06:26:56.936Z,27.72
2023-05-15T06:27:59.011Z,27.72
2023-05-15T06:29:01.106Z,27.70
2023-05-15T06:30:02.999Z,27.71
2023-05-15T06:31:05.169Z,27.75
2023-05-15T06:32:07.501Z,27.76
2023-05-15T06:33:09.513Z,27.74
2023-05-15T06:34:11.533Z,27.76
2023-05-15T06:35:13.523Z,27.76
2023-05-15T06:36:16.844Z,27.73
2023-05-15T06:37:18.762Z,27.76
2023-05-15T06:38:20.590Z,27.74
2023-05-15T06:39:22.535Z,27.76
2023-05-15T06:40:24.993Z,27.76
2023-05-15T06:41:27.433Z,27.78
2023-05-15T06:42:29.384Z,27.77
2023-05-15T06:43:31.528Z,27.79
2023-05-15T06:44:33.773Z,27.78
2023-05-15T06:45:35.973Z,27.78
2023-05-15T06:46:37.905Z,27.78
2023-05-15T06:47:40.093Z,27.80
2023-05-15T06:48:42.259Z,27.80
2023-05-15T06:49:44.216Z,27.81
2023-05-15T06:50:46.109Z,27.83
2023-05-15T06:51:48.258Z,27.84
2023-05-15T06:52:50.186Z,27.84
2023-05-15T06:53:52.211Z,27.85
2023-05-15T06:54:54.231Z,27.86
2023-05-15T06:55:56.609Z,27.87
2023-05-15T06:56:58.517Z,27.89
2023-05-15T06:58:00.551Z,27.88
2023-05-15T06:59:02.835Z,27.90
2023-05-15T07:00:06.075Z,27.91
2023-05-15T07:01:09.514Z,27.90
2023-05-15T07:02:11.801Z,27.91
2023-05-15T07:03:14.541Z,27.91
2023-05-15T07:04:16.848Z,27.95
2023-05-15T07:05:19.163Z,27.94
2023-05-15T07:06:21.059Z,27.93
2023-05-15T07:07:22.955Z,27.95
2023-05-15T07:08:24.988Z,27.95
2023-05-15T07:09:26.991Z,27.97
2023-05-15T07:10:29.210Z,27.97
2023-05-15T07:11:33.633Z,27.97
2023-05-15T07:12:35.615Z,27.98
2023-05-15T07:13:37.629Z,27.98
2023-05-15T07:14:39.656Z,27.98
2023-05-15T07:15:41.936Z,28.00
2023-05-15T07:16:44.004Z,28.02
2023-05-15T07:17:46.000Z,28.01
2023-05-15T07:18:48.291Z,28.04
2023-05-15T07:19:50.222Z,28.03
2023-05-15T07:20:52.059Z,28.05
2023-05-15T07:21:53.977Z,28.04
2023-05-15T07:22:56.925Z,28.05
2023-05-15T07:23:59.112Z,28.05
2023-05-15T07:25:01.038Z,28.07
2023-05-15T07:26:03.048Z,28.08
2023-05-15T07:27:05.377Z,28.07
2023-05-15T07:28:07.537Z,28.08
2023-05-15T07:30:12.132Z,28.09
2023-05-15T07:31:14.017Z,28.10
2023-05-15T07:32:15.924Z,28.10
2023-05-15T07:33:17.959Z,28.09
2023-05-15T07:34:20.176Z,28.09
2023-05-15T07:35:22.099Z,28.09
2023-05-15T07:36:24.017Z,28.09
2023-05-15T07:37:26.084Z,28.11
2023-05-15T07:38:28.124Z,28.10
2023-05-15T07:39:30.195Z,28.11
2023-05-15T07:40:32.858Z,28.13
2023-05-15T07:41:34.843Z,28.13
2023-05-15T07:42:36.799Z,28.14
2023-05-15T07:43:38.697Z,28.12
2023-05-15T07:44:41.869Z,28.13
2023-05-15T07:45:46.362Z,28.14
2023-05-15T07:46:48.433Z,28.14
2023-05-15T07:47:50.971Z,28.14
2023-05-15T07:48:52.835Z,28.16
2023-05-15T07:49:54.641Z,28.16
2023-05-15T07:50:57.093Z,28.16
2023-05-15T07:51:59.231Z,28.15
2023-05-15T07:53:01.142Z,28.15
2023-05-15T07:54:04.420Z,28.13
2023-05-15T07:55:07.240Z,28.15
2023-05-15T07:56:09.187Z,28.14
2023-05-15T07:57:11.052Z,28.14
2023-05-15T07:58:12.936Z,28.15
2023-05-15T07:59:15.016Z,28.14
2023-05-15T08:00:17.836Z,28.15
2023-05-15T08:01:19.821Z,28.15
2023-05-15T08:02:21.860Z,28.15
2023-05-15T08:03:24.015Z,28.16
2023-05-15T08:04:26.220Z,28.16
2023-05-15T08:05:28.942Z,28.17
2023-05-15T08:06:32.977Z,28.17
2023-05-15T08:07:35.873Z,28.17
2023-05-15T08:08:37.865Z,28.18
2023-05-15T08:09:39.708Z,28.20
2023-05-15T08:10:41.768Z,28.21
2023-05-15T08:11:43.946Z,28.23
2023-05-15T08:12:47.162Z,28.24
2023-05-15T08:13:50.706Z,28.24
2023-05-15T08:14:55.572Z,28.24
2023-05-15T08:15:57.916Z,28.25
2023-05-15T08:16:59.881Z,28.27
2023-05-15T08:18:02.028Z,28.27
2023-05-15T08:19:07.008Z,28.28
2023-05-15T08:20:09.826Z,28.29
2023-05-15T08:21:11.919Z,28.28
2023-05-15T08:22:14.632Z,28.30
2023-05-15T08:23:16.483Z,28.34
2023-05-15T08:24:18.278Z,28.34
2023-05-15T08:25:20.701Z,28.37
2023-05-15T08:26:22.699Z,28.36
2023-05-15T08:27:24.596Z,28.38
2023-05-15T08:28:26.520Z,28.38
2023-05-15T08:29:28.382Z,28.39
2023-05-15T08:30:30.298Z,28.40
2023-05-15T08:31:32.189Z,28.41
2023-05-15T08:32:34.283Z,28.42
2023-05-15T08:33:36.449Z,28.43
2023-05-15T08:34:38.889Z,28.43
2023-05-15T08:35:40.970Z,28.45
2023-05-15T08:36:42.942Z,28.45
2023-05-15T08:37:44.805Z,28.46
2023-05-15T08:38:46.611Z,28.49
2023-05-15T08:39:48.561Z,28.49
2023-05-15T08:40:54.424Z,28.50
2023-05-15T08:42:03.949Z,28.53
2023-05-15T08:43:15.953Z,28.52
2023-05-15T08:44:18.911Z,28.53
2023-05-15T08:45:21.750Z,28.54
2023-05-15T08:46:24.796Z,28.54
2023-05-15T08:47:30.118Z,28.56
2023-05-15T08:48:37.404Z,28.55
2023-05-15T08:50:06.072Z,28.59
2023-05-15T08:51:12.688Z,28.59
2023-05-15T08:52:16.691Z,28.60
2023-05-15T08:53:19.307Z,28.58
2023-05-15T08:54:22.676Z,28.61
2023-05-15T08:55:25.592Z,28.62
2023-05-15T08:56:27.837Z,28.62
2023-05-15T08:57:31.505Z,28.62
2023-05-15T08:58:34.415Z,28.63
2023-05-15T08:59:37.749Z,28.63
2023-05-15T09:00:39.629Z,28.65
2023-05-15T09:01:41.462Z,28.67
2023-05-15T09:02:43.798Z,28.66
2023-05-15T09:03:46.536Z,28.68
2023-05-15T09:04:49.049Z,28.69
2023-05-15T09:05:53.623Z,28.70
2023-05-15T09:06:58.923Z,28.72
2023-05-15T09:08:06.616Z,28.71
2023-05-15T09:09:13.439Z,28.71
2023-05-15T09:10:16.599Z,28.72
2023-05-15T09:11:19.120Z,28.73
2023-05-15T09:12:25.005Z,28.73
2023-05-15T09:13:26.971Z,28.74
2023-05-15T09:14:29.293Z,28.74
2023-05-15T09:15:32.960Z,28.74
2023-05-15T09:16:34.976Z,28.74
2023-05-15T09:17:37.215Z,28.76
2023-05-15T09:18:41.492Z,28.77
2023-05-15T09:19:44.002Z,28.78
2023-05-15T09:20:46.012Z,28.78
2023-05-15T09:21:48.275Z,28.78
2023-05-15T09:22:50.309Z,28.80
2023-05-15T09:23:53.924Z,28.81
2023-05-15T09:24:58.206Z,28.82
2023-05-15T09:26:00.652Z,28.82
2023-05-15T09:27:07.681Z,28.82
2023-05-15T09:28:24.001Z,28.82
2023-05-15T09:29:29.282Z,28.85
2023-05-15T09:30:31.291Z,28.83
2023-05-15T09:31:34.015Z,28.83
2023-05-15T09:32:37.731Z,28.84
2023-05-15T09:33:42.370Z,28.82
2023-05-15T09:34:46.276Z,28.86
2023-05-15T09:35:48.259Z,28.85
2023-05-15T09:36:50.263Z,28.86
2023-05-15T09:38:02.388Z,28.87
2023-05-15T09:39:04.501Z,28.87
2023-05-15T09:40:11.762Z,28.90
2023-05-15T09:41:13.661Z,28.90
2023-05-15T09:42:16.078Z,28.91
2023-05-15T09:43:18.010Z,28.91
2023-05-15T09:44:25.575Z,28.91
2023-05-15T09:45:29.932Z,28.92
2023-05-15T09:46:36.547Z,28.95
2023-05-15T09:47:39.019Z,28.95
2023-05-15T09:48:41.111Z,28.95
2023-05-15T09:49:47.225Z,28.95
2023-05-15T09:50:50.295Z,28.96
2023-05-15T09:51:52.700Z,28.98
2023-05-15T09:52:58.603Z,28.97
2023-05-15T09:54:01.030Z,28.98
2023-05-15T09:55:02.929Z,29.00
2023-05-15T09:56:05.175Z,28.99
2023-05-15T09:57:13.991Z,29.01
2023-05-15T09:58:18.540Z,29.02
2023-05-15T09:59:24.550Z,29.03
2023-05-15T10:00:26.504Z,29.04
2023-05-15T10:01:28.585Z,29.05
2023-05-15T10:02:34.855Z,29.06
2023-05-15T10:03:36.859Z,29.06
2023-05-15T10:04:38.992Z,29.08
2023-05-15T10:05:43.436Z,29.08
2023-05-15T10:06:49.348Z,29.12
2023-05-15T10:07:55.646Z,29.12
2023-05-15T10:08:58.464Z,29.12
2023-05-15T10:10:03.013Z,29.12
2023-05-15T10:11:06.276Z,29.13
2023-05-15T10:12:09.528Z,29.13
2023-05-15T10:13:11.925Z,29.14
2023-05-15T10:14:14.710Z,29.14
2023-05-15T10:15:19.290Z,29.15
2023-05-15T10:16:24.698Z,29.15
2023-05-15T10:17:32.058Z,29.16
2023-05-15T10:18:37.052Z,29.17
2023-05-15T10:19:50.846Z,29.17
2023-05-15T10:21:04.076Z,29.20
2023-05-15T10:22:07.221Z,29.20
2023-05-15T10:23:14.187Z,29.21
2023-05-15T10:24:20.597Z,29.22
2023-05-15T10:26:00.821Z,29.26
2023-05-15T10:27:04.203Z,29.22
2023-05-15T10:28:10.653Z,29.23
2023-05-15T10:29:15.156Z,29.21
2023-05-15T10:30:17.450Z,29.21
2023-05-15T10:31:20.826Z,29.21
2023-05-15T10:32:24.568Z,29.22
2023-05-15T10:33:28.065Z,29.23
2023-05-15T10:34:31.180Z,29.22
2023-05-15T10:35:36.219Z,29.22
2023-05-15T10:36:39.364Z,29.23
2023-05-15T10:37:41.875Z,29.24
2023-05-15T10:38:46.089Z,29.25
2023-05-15T10:39:49.667Z,29.25
2023-05-15T10:41:05.540Z,29.25
2023-05-15T10:42:18.181Z,29.26
2023-05-15T10:43:21.421Z,29.26
2023-05-15T10:44:23.993Z,29.27
2023-05-15T10:45:26.706Z,29.28
2023-05-15T10:46:32.015Z,29.28
2023-05-15T10:47:34.891Z,29.29
2023-05-15T10:48:37.438Z,29.30
2023-05-15T10:49:39.352Z,29.30
2023-05-15T10:50:41.643Z,29.30
2023-05-15T10:51:43.662Z,29.29
2023-05-15T10:52:45.728Z,29.31
2023-05-15T10:53:48.020Z,29.31
2023-05-15T10:54:50.432Z,29.32
2023-05-15T10:55:52.550Z,29.33
2023-05-15T10:56:57.253Z,29.33
2023-05-15T10:57:59.678Z,29.34
2023-05-15T10:59:10.698Z,29.36
2023-05-15T11:00:27.927Z,29.37
2023-05-15T11:01:35.748Z,29.37
2023-05-15T11:02:41.407Z,29.37
2023-05-15T11:03:49.187Z,29.37
2023-05-15T11:05:01.086Z,29.36
2023-05-15T11:06:13.538Z,29.37
2023-05-15T11:07:18.312Z,29.36
2023-05-15T11:08:21.712Z,29.36
2023-05-15T11:09:29.275Z,29.35
2023-05-15T11:10:31.219Z,29.36
2023-05-15T11:11:51.804Z,29.39
2023-05-15T11:13:01.988Z,29.39
2023-05-15T11:14:07.925Z,29.38
2023-05-15T11:15:09.807Z,29.38
2023-05-15T11:16:12.225Z,29.38
2023-05-15T11:17:17.601Z,29.39
2023-05-15T11:18:21.019Z,29.39
2023-05-15T11:19:29.030Z,29.41
2023-05-15T11:21:02.680Z,29.48
2023-05-15T11:22:17.609Z,29.46
2023-05-15T11:23:23.921Z,29.45
2023-05-15T11:24:33.621Z,29.45
2023-05-15T11:25:37.244Z,29.45
2023-05-15T11:26:43.081Z,29.45
2023-05-15T11:27:46.610Z,29.46
2023-05-15T11:28:48.741Z,29.47
2023-05-15T11:30:14.863Z,29.51
2023-05-15T11:31:17.051Z,29.48
2023-05-15T11:32:46.995Z,29.53
2023-05-15T11:33:52.522Z,29.51
2023-05-15T11:35:01.684Z,29.51
2023-05-15T11:36:06.362Z,29.49
2023-05-15T11:37:17.894Z,29.52
2023-05-15T11:38:27.520Z,29.52
2023-05-15T11:39:29.589Z,29.51
2023-05-15T11:40:44.630Z,29.52
2023-05-15T11:41:46.887Z,29.53
2023-05-15T11:43:08.790Z,29.56
2023-05-15T11:44:10.727Z,29.55
2023-05-15T11:45:12.661Z,29.53
2023-05-15T11:46:16.433Z,29.52
2023-05-15T11:47:18.496Z,29.53
2023-05-15T11:48:20.713Z,29.52
2023-05-15T11:49:24.784Z,29.54
2023-05-15T11:50:27.938Z,29.54
2023-05-15T11:51:30.687Z,29.54
2023-05-15T11:52:32.734Z,29.55
2023-05-15T11:53:35.808Z,29.54
2023-05-15T11:54:37.908Z,29.54
2023-05-15T11:55:44.204Z,29.56
2023-05-15T11:56:46.552Z,29.53
2023-05-15T11:57:48.493Z,29.54
2023-05-15T11:58:54.367Z,29.52
2023-05-15T11:59:56.212Z,29.52
2023-05-15T12:00:58.424Z,29.53
2023-05-15T12:02:00.424Z,29.53
2023-05-15T12:03:03.990Z,29.51
2023-05-15T12:04:17.092Z,29.53
2023-05-15T12:05:19.364Z,29.52
2023-05-15T12:06:21.465Z,29.52
2023-05-15T12:07:25.412Z,29.50
2023-05-15T12:08:35.407Z,29.51
2023-05-15T12:09:40.588Z,29.49
2023-05-15T12:10:43.831Z,29.49
2023-05-15T12:11:54.277Z,29.51
2023-05-15T12:12:56.290Z,29.51
2023-05-15T12:13:58.283Z,29.50
2023-05-15T12:15:00.950Z,29.51
2023-05-15T12:16:04.767Z,29.52
2023-05-15T12:17:07.126Z,29.51
2023-05-15T12:18:09.848Z,29.52
2023-05-15T12:19:11.997Z,29.53
2023-05-15T12:20:20.248Z,29.55
2023-05-15T12:21:22.224Z,29.54
2023-05-15T12:22:24.125Z,29.54
2023-05-15T12:23:27.345Z,29.56
2023-05-15T12:24:29.297Z,29.54
2023-05-15T12:25:33.681Z,29.54
2023-05-15T12:26:36.208Z,29.55
2023-05-15T12:27:40.360Z,29.53
2023-05-15T12:28:42.586Z,29.53
2023-05-15T12:29:44.989Z,29.50
2023-05-15T12:30:47.804Z,29.47
2023-05-15T12:31:54.461Z,29.46
2023-05-15T12:33:07.136Z,29.47
2023-05-15T12:34:10.841Z,29.44
2023-05-15T12:35:12.966Z,29.41
2023-05-15T12:36:14.955Z,29.38
2023-05-15T12:37:23.168Z,29.37
2023-05-15T12:38:25.661Z,29.35
2023-05-15T12:39:27.922Z,29.30
2023-05-15T12:40:33.183Z,29.29
2023-05-15T12:41:38.997Z,29.31
2023-05-15T12:42:45.663Z,29.29
2023-05-15T12:43:48.609Z,29.27
2023-05-15T12:44:54.970Z,29.24
2023-05-15T12:45:57.964Z,29.23
2023-05-15T12:46:59.874Z,29.23
2023-05-15T12:48:03.433Z,29.23
2023-05-15T12:49:05.551Z,29.23
2023-05-15T12:50:22.725Z,29.25
2023-05-15T12:51:24.760Z,29.25
2023-05-15T12:52:31.543Z,29.23
2023-05-15T12:53:39.722Z,29.24
2023-05-15T12:54:42.093Z,29.26
2023-05-15T12:55:46.539Z,29.27
2023-05-15T12:56:49.484Z,29.27
2023-05-15T12:58:04.440Z,29.31
2023-05-15T12:59:06.836Z,29.34
2023-05-15T13:00:12.377Z,29.35
2023-05-15T13:01:16.853Z,29.36
2023-05-15T13:02:21.190Z,29.37
2023-05-15T13:03:25.558Z,29.38
2023-05-15T13:04:28.329Z,29.37
2023-05-15T13:05:35.263Z,29.41
2023-05-15T13:06:46.516Z,29.42
2023-05-15T13:07:51.399Z,29.42
2023-05-15T13:08:55.063Z,29.44
2023-05-15T13:10:08.229Z,29.46
2023-05-15T13:11:14.552Z,29.46
2023-05-15T13:12:20.179Z,29.45
2023-05-15T13:13:22.335Z,29.45
2023-05-15T13:14:29.060Z,29.47
2023-05-15T13:15:40.762Z,29.50
2023-05-15T13:16:45.119Z,29.50
2023-05-15T13:17:47.023Z,29.50
2023-05-15T13:18:49.509Z,29.50
2023-05-15T13:19:51.507Z,29.53
2023-05-15T13:20:53.919Z,29.52
2023-05-15T13:21:56.026Z,29.55
2023-05-15T13:22:58.192Z,29.56
2023-05-15T13:24:00.262Z,29.56
2023-05-15T13:25:02.386Z,29.55
2023-05-15T13:26:04.269Z,29.58
2023-05-15T13:27:06.176Z,29.61
2023-05-15T13:28:11.360Z,29.62
2023-05-15T13:29:13.429Z,29.63
2023-05-15T13:30:17.229Z,29.62
2023-05-15T13:31:19.268Z,29.64
2023-05-15T13:32:21.308Z,29.64
2023-05-15T13:33:23.278Z,29.67
2023-05-15T13:34:25.204Z,29.68
2023-05-15T13:35:27.928Z,29.70
2023-05-15T13:36:29.819Z,29.71
2023-05-15T13:37:32.152Z,29.73
2023-05-15T13:38:34.415Z,29.74
2023-05-15T13:39:36.656Z,29.74
2023-05-15T13:40:39.287Z,29.77
2023-05-15T13:41:41.216Z,29.77
2023-05-15T13:42:44.414Z,29.78
2023-05-15T13:43:47.925Z,29.81
2023-05-15T13:44:49.729Z,29.82
2023-05-15T13:45:51.605Z,29.83
2023-05-15T13:46:53.475Z,29.84
2023-05-15T13:47:56.033Z,29.84